1882 Cyclonic Storm NOT_NAMED (1882269N16092)


IBTrACS version v04r00. Visit IBTrACS website for data access.
Please direct all questions to the IBTrACS Q and A forum

Storm track - Intensity - Wind Radii - Intensity Data - Source Data - All data

Summary Information

Storm ID 1882269N16092
Start Sep 26 00Z
Landfall Sep 28 18Z
Max Intensity 45 kt (Sep 26 03Z)
End Oct 3 03Z
ATCF IDs
Track status Best track data.

Storm track plot

Map of storm track

Intensity plots

Map of storm track

Radial wind information

No radial wind information for this storm


Position and Intensity Table

BASIN ISO_TIME_________ NATURE LAT LON DS824 WIND
degrees north degrees east kts
NI 1882-09-26 00:00:00 TS 16.10 91.50 45
NI 03:00:00 TS 16.16 91.36 45
NI 06:00:00 TS 16.27 91.19 45
NI 09:00:00 TS 16.40 91.04 45
NI 12:00:00 TS 16.54 90.89 45
NI 15:00:00 TS 16.67 90.70 45
NI 18:00:00 TS 16.82 90.51 45
NI 21:00:00 TS 16.96 90.31 45
NI 1882-09-27 00:00:00 TS 17.12 90.11 45
NI 03:00:00 TS 17.30 89.88 45
NI 06:00:00 TS 17.49 89.63 45
NI 09:00:00 TS 17.69 89.38 45
NI 12:00:00 TS 17.90 89.13 45
NI 15:00:00 TS 18.10 88.87 45
NI 18:00:00 TS 18.29 88.62 45
NI 21:00:00 TS 18.47 88.36 45
NI 1882-09-28 00:00:00 TS 18.68 88.12 45
NI 03:00:00 TS 18.96 87.90 41
NI 06:00:00 TS 19.31 87.71 37
NI 09:00:00 TS 19.66 87.54 33
NI 12:00:00 TS 20.02 87.33 30
NI 15:00:00 TS 20.38 87.02 30
NI 18:00:00 TS 20.72 86.62 30
NI 21:00:00 TS 21.01 86.18 30
NI 1882-09-29 00:00:00 TS 21.27 85.73 30
NI 03:00:00 TS 21.50 85.30 30
NI 06:00:00 TS 21.72 84.89 30
NI 09:00:00 TS 21.92 84.46 30
NI 12:00:00 TS 22.11 84.02 30
NI 15:00:00 TS 22.27 83.57 30
NI 18:00:00 TS 22.45 83.10 30
NI 21:00:00 TS 22.64 82.62 30
NI 1882-09-30 00:00:00 TS 22.82 82.18 30
NI 03:00:00 TS 22.95 81.87 30
NI 06:00:00 TS 23.07 81.67 30
NI 09:00:00 TS 23.19 81.52 30
NI 12:00:00 TS 23.33 81.43 30
NI 15:00:00 TS 23.50 81.37 30
NI 18:00:00 TS 23.69 81.32 30
NI 21:00:00 TS 23.88 81.30 30
NI 1882-10-01 00:00:00 TS 24.03 81.30 30
NI 03:00:00 TS 24.11 81.30 30
NI 06:00:00 TS 24.13 81.30 30
NI 09:00:00 TS 24.13 81.30 30
NI 12:00:00 TS 24.11 81.30 30
NI 15:00:00 TS 24.10 81.30 30
NI 18:00:00 TS 24.09 81.29 30
NI 21:00:00 TS 24.07 81.26 30
NI 1882-10-02 00:00:00 TS 24.08 81.27 30
NI 03:00:00 TS 24.14 81.36 30
NI 06:00:00 TS 24.25 81.51 30
NI 09:00:00 TS 24.39 81.69 30
NI 12:00:00 TS 24.53 81.89 30
NI 15:00:00 TS 24.66 82.10 30
NI 18:00:00 TS 24.74 82.30 30
NI 21:00:00 TS 24.81 82.52 30
NI 1882-10-03 00:00:00 TS 24.86 82.75 30
NI 03:00:00 NR 24.90 82.90

Source Information

Agency Information
USA
TOKYO
CMA
HKO
NEWDELHI
REUNION
BOM
NADI
WELLINGTON
DS824 n_ind.dat:57:NOT NAMED
TD9636 cons_worldwide_trop_cyclone_18710101-19891231-004:Line=531
TD9635
NEUMANN
MLC

All available IBTrACS Data

SEASON BASIN SUBBASIN ISO_TIME_________ NATURE LAT LON DIST2LAND LANDFALL IFLAG USA SSHS DS824 LAT DS824 LON DS824 STAGE DS824 WIND TD9636 LAT TD9636 LON TD9636 STAGE STORM SPEED STORM DIR
Year degrees north degrees east km km 1 degrees north degrees east kts degrees north degrees east kts degrees
1882 NI BB 1882-09-26 00:00:00 TS 16.10 91.50 288 288 _________O____ -1 16.10 91.50 TC 45 3 294
1882 NI BB 03:00:00 TS 16.16 91.36 300 300 _________PO___ -1 16.19 91.29 TC 45 16.10 91.50 3 3 300
1882 NI BB 06:00:00 TS 16.27 91.19 322 322 _________OP___ -1 16.30 91.10 TC 45 16.22 91.33 3 4 308
1882 NI BB 09:00:00 TS 16.40 91.04 344 344 _________PP___ -1 16.44 90.95 TC 45 16.35 91.16 3 4 313
1882 NI BB 12:00:00 TS 16.54 90.89 356 356 _________OP___ -1 16.60 90.80 TC 45 16.47 90.98 3 4 310
1882 NI BB 15:00:00 TS 16.67 90.70 381 381 _________PO___ -1 16.75 90.61 TC 45 16.60 90.80 3 5 308
1882 NI BB 18:00:00 TS 16.82 90.51 404 404 _________OP___ -1 16.90 90.40 TC 45 16.73 90.62 3 5 307
1882 NI BB 21:00:00 TS 16.96 90.31 423 423 _________PP___ -1 17.04 90.21 TC 45 16.88 90.42 3 5 308
1882 NI BB 1882-09-27 00:00:00 TS 17.12 90.11 435 430 _________OP___ -1 17.20 90.00 TC 45 17.03 90.22 3 5 309
1882 NI BB 03:00:00 TS 17.30 89.88 444 437 _________PO___ -1 17.39 89.76 TC 45 17.20 90.00 3 6 310
1882 NI BB 06:00:00 TS 17.49 89.63 437 406 _________OP___ -1 17.60 89.50 TC 45 17.39 89.76 3 6 310
1882 NI BB 09:00:00 TS 17.69 89.38 406 368 _________PP___ -1 17.80 89.25 TC 45 17.58 89.51 3 6 310
1882 NI BB 12:00:00 TS 17.90 89.13 368 337 _________OP___ -1 18.00 89.00 TC 45 17.79 89.26 3 6 310
1882 NI BB 15:00:00 TS 18.10 88.87 337 299 _________PO___ -1 18.20 88.75 TC 45 18.00 89.00 3 6 309
1882 NI BB 18:00:00 TS 18.29 88.62 299 268 _________OP___ -1 18.40 88.50 TC 45 18.18 88.74 3 6 307
1882 NI BB 21:00:00 TS 18.47 88.36 268 230 _________PP___ -1 18.58 88.24 TC 45 18.35 88.48 3 6 309
1882 NI BB 1882-09-28 00:00:00 TS 18.68 88.12 230 199 _________OP___ -1 18.80 88.00 TC 45 18.56 88.24 3 7 318
1882 NI BB 03:00:00 TS 18.96 87.90 192 153 _________PO___ -1 19.13 87.79 TC 41 18.80 88.00 3 7 328
1882 NI BB 06:00:00 TS 19.31 87.71 153 122 _________OP___ -1 19.50 87.60 TC 37 19.11 87.82 3 8 334
1882 NI BB 09:00:00 TS 19.66 87.54 107 71 _________PP___ -1 19.85 87.43 TC 33 19.47 87.65 3 8 333
1882 NI BB 12:00:00 TS 20.02 87.33 71 23 _________OP___ -1 20.20 87.20 TC 30 19.84 87.46 3 9 326
1882 NI BB 15:00:00 TS 20.38 87.02 23 0 _________PO___ -1 20.57 86.84 TC 30 20.20 87.20 1 10 316
1882 NI BB 18:00:00 TS 20.72 86.62 0 0 _________OP___ -1 20.90 86.40 TC 30 20.53 86.84 1 10 309
1882 NI BB 21:00:00 TS 21.01 86.18 0 0 _________PP___ -1 21.17 85.95 TC 30 20.85 86.42 1 10 304
1882 NI BB 1882-09-29 00:00:00 TS 21.27 85.73 0 0 _________OP___ -1 21.40 85.50 TC 30 21.14 85.96 1 10 301
1882 NI BB 03:00:00 TS 21.50 85.30 0 0 _________PO___ -1 21.61 85.10 TC 30 21.40 85.50 1 9 300
1882 NI BB 06:00:00 TS 21.72 84.89 0 0 _________OP___ -1 21.80 84.70 TC 30 21.63 85.08 1 9 298
1882 NI BB 09:00:00 TS 21.92 84.46 0 0 _________PP___ -1 22.01 84.26 TC 30 21.84 84.66 1 9 296
1882 NI BB 12:00:00 TS 22.11 84.02 0 0 _________OP___ -1 22.20 83.80 TC 30 22.02 84.23 1 9 293
1882 NI BB 15:00:00 TS 22.27 83.57 0 0 _________PO___ -1 22.35 83.35 TC 30 22.20 83.80 1 9 292
1882 NI BB 18:00:00 TS 22.45 83.10 0 0 _________OP___ -1 22.50 82.90 TC 30 22.39 83.31 1 10 292
1882 NI BB 21:00:00 TS 22.64 82.62 0 0 _________PP___ -1 22.71 82.41 TC 30 22.57 82.82 1 9 294
1882 NI BB 1882-09-30 00:00:00 TS 22.82 82.18 0 0 _________OP___ -1 22.90 82.00 TC 30 22.74 82.37 1 8 295
1882 NI BB 03:00:00 TS 22.95 81.87 0 0 _________PO___ -1 23.01 81.75 TC 30 22.90 82.00 1 5 297
1882 NI BB 06:00:00 TS 23.07 81.67 0 0 _________OP___ -1 23.10 81.60 TC 30 23.03 81.74 1 4 307
1882 NI BB 09:00:00 TS 23.19 81.52 0 0 _________PP___ -1 23.23 81.48 TC 30 23.15 81.57 1 3 321
1882 NI BB 12:00:00 TS 23.33 81.43 0 0 _________OP___ -1 23.40 81.40 TC 30 23.27 81.46 1 3 335
1882 NI BB 15:00:00 TS 23.50 81.37 0 0 _________PO___ -1 23.60 81.34 TC 30 23.40 81.40 1 4 344
1882 NI BB 18:00:00 TS 23.69 81.32 0 0 _________OP___ -1 23.80 81.30 TC 30 23.59 81.33 1 4 350
1882 NI BB 21:00:00 TS 23.88 81.30 0 0 _________PP___ -1 23.98 81.29 TC 30 23.79 81.30 1 3 0
1882 NI BB 1882-10-01 00:00:00 TS 24.03 81.30 0 0 _________OP___ -1 24.10 81.30 TC 30 23.97 81.30 1 2 0
1882 NI BB 03:00:00 TS 24.11 81.30 0 0 _________PO___ -1 24.12 81.30 TC 30 24.10 81.30 1 1 0
1882 NI BB 06:00:00 TS 24.13 81.30 0 0 _________OP___ -1 24.10 81.30 TC 30 24.15 81.29 1 0 0
1882 NI BB 09:00:00 TS 24.13 81.30 0 0 _________PP___ -1 24.10 81.30 TC 30 24.15 81.29 1 0 0
1882 NI BB 12:00:00 TS 24.11 81.30 0 0 _________OP___ -1 24.10 81.30 TC 30 24.13 81.30 1 0 0
1882 NI BB 15:00:00 TS 24.10 81.30 0 0 _________PO___ -1 24.10 81.30 TC 30 24.10 81.30 1 0 0
1882 NI BB 18:00:00 TS 24.09 81.29 0 0 _________OP___ -1 24.10 81.30 TC 30 24.08 81.27 1 0 228
1882 NI BB 21:00:00 TS 24.07 81.26 0 0 _________PP___ -1 24.08 81.28 TC 30 24.06 81.25 1 0 0
1882 NI BB 1882-10-02 00:00:00 TS 24.08 81.27 0 0 _________OP___ -1 24.10 81.30 TC 30 24.06 81.25 1 1 54
1882 NI BB 03:00:00 TS 24.14 81.36 0 0 _________PO___ -1 24.18 81.42 TC 30 24.10 81.30 1 3 52
1882 NI BB 06:00:00 TS 24.25 81.51 0 0 _________OP___ -1 24.30 81.60 TC 30 24.20 81.42 1 4 50
1882 NI BB 09:00:00 TS 24.39 81.69 0 0 _________PP___ -1 24.45 81.79 TC 30 24.33 81.58 1 5 51
1882 NI BB 12:00:00 TS 24.53 81.89 0 0 _________OP___ -1 24.60 82.00 TC 30 24.47 81.78 1 5 54
1882 NI BB 15:00:00 TS 24.66 82.10 0 0 _________PO___ -1 24.71 82.19 TC 30 24.60 82.00 1 4 60
1882 NI BB 18:00:00 TS 24.74 82.30 0 0 _________OP___ -1 24.80 82.40 TC 30 24.70 82.22 1 4 68
1882 NI BB 21:00:00 TS 24.81 82.52 0 0 _________PP___ -1 24.86 82.64 TC 30 24.78 82.45 1 4 74
1882 NI BB 1882-10-03 00:00:00 TS 24.86 82.75 0 0 _________OP___ -1 24.90 82.90 TC 30 24.85 82.67 1 4 76
1882 NI BB 03:00:00 NR 24.90 82.90 0 __________O___ -1 TC 24.90 82.90 1 3 75